sensor_id;sensor_type;location;lat;lon;timestamp;temperature;humidity
15834;DHT22;8017;50.812;4.934;2023-04-01T00:02:41;9.80;99.90
15834;DHT22;8017;50.812;4.934;2023-04-01T00:05:44;9.80;99.90
15834;DHT22;8017;50.812;4.934;2023-04-01T00:08:47;9.80;99.90
15834;DHT22;8017;50.812;4.934;2023-04-01T00:11:50;9.80;99.90
15834;DHT22;8017;50.812;4.934;2023-04-01T00:14:52;9.70;99.90
15834;DHT22;8017;50.812;4.934;2023-04-01T00:17:53;9.80;99.90
15834;DHT22;8017;50.812;4.934;2023-04-01T00:20:55;9.80;99.90
15834;DHT22;8017;50.812;4.934;2023-04-01T00:23:59;9.80;99.90
15834;DHT22;8017;50.812;4.934;2023-04-01T00:27:01;9.80;99.90
15834;DHT22;8017;50.812;4.934;2023-04-01T00:30:03;9.70;99.90
15834;DHT22;8017;50.812;4.934;2023-04-01T00:33:06;9.80;99.90
15834;DHT22;8017;50.812;4.934;2023-04-01T00:36:09;9.80;99.90
15834;DHT22;8017;50.812;4.934;2023-04-01T00:39:13;9.80;99.90
15834;DHT22;8017;50.812;4.934;2023-04-01T00:42:14;9.80;99.90
15834;DHT22;8017;50.812;4.934;2023-04-01T00:45:31;9.80;99.90
15834;DHT22;8017;50.812;4.934;2023-04-01T00:48:35;9.80;99.90
15834;DHT22;8017;50.812;4.934;2023-04-01T00:51:39;9.80;99.90
15834;DHT22;8017;50.812;4.934;2023-04-01T00:54:47;9.80;99.90
15834;DHT22;8017;50.812;4.934;2023-04-01T00:57:50;9.80;99.90
15834;DHT22;8017;50.812;4.934;2023-04-01T01:00:55;9.80;99.90
15834;DHT22;8017;50.812;4.934;2023-04-01T01:03:58;9.80;99.90
15834;DHT22;8017;50.812;4.934;2023-04-01T01:07:08;9.80;99.90
15834;DHT22;8017;50.812;4.934;2023-04-01T01:10:18;9.80;99.90
15834;DHT22;8017;50.812;4.934;2023-04-01T01:13:25;9.70;99.90
15834;DHT22;8017;50.812;4.934;2023-04-01T01:16:30;9.80;99.90
15834;DHT22;8017;50.812;4.934;2023-04-01T01:26:59;9.60;99.90
15834;DHT22;8017;50.812;4.934;2023-04-01T01:30:25;9.60;99.90
15834;DHT22;8017;50.812;4.934;2023-04-01T01:33:42;9.60;99.90
15834;DHT22;8017;50.812;4.934;2023-04-01T01:36:54;9.60;99.90
15834;DHT22;8017;50.812;4.934;2023-04-01T01:40:00;9.60;99.90
15834;DHT22;8017;50.812;4.934;2023-04-01T01:43:05;9.60;99.90
15834;DHT22;8017;50.812;4.934;2023-04-01T01:46:11;9.60;99.90
15834;DHT22;8017;50.812;4.934;2023-04-01T01:49:18;9.60;99.90
15834;DHT22;8017;50.812;4.934;2023-04-01T01:52:22;9.60;99.90
15834;DHT22;8017;50.812;4.934;2023-04-01T01:55:27;9.60;99.90
15834;DHT22;8017;50.812;4.934;2023-04-01T01:58:32;9.60;99.90
15834;DHT22;8017;50.812;4.934;2023-04-01T02:01:39;9.60;99.90
15834;DHT22;8017;50.812;4.934;2023-04-01T02:04:44;9.60;99.90
15834;DHT22;8017;50.812;4.934;2023-04-01T02:07:53;9.60;99.90
15834;DHT22;8017;50.812;4.934;2023-04-01T02:11:00;9.60;99.90
15834;DHT22;8017;50.812;4.934;2023-04-01T02:14:06;9.60;99.90
15834;DHT22;8017;50.812;4.934;2023-04-01T02:17:11;9.60;99.90
15834;DHT22;8017;50.812;4.934;2023-04-01T02:20:16;9.60;99.90
15834;DHT22;8017;50.812;4.934;2023-04-01T02:23:20;9.60;99.90
15834;DHT22;8017;50.812;4.934;2023-04-01T02:26:23;9.60;99.90
15834;DHT22;8017;50.812;4.934;2023-04-01T02:29:26;9.60;99.90
15834;DHT22;8017;50.812;4.934;2023-04-01T02:32:29;9.60;99.90
15834;DHT22;8017;50.812;4.934;2023-04-01T02:35:33;9.60;99.90
15834;DHT22;8017;50.812;4.934;2023-04-01T02:38:38;9.60;99.90
15834;DHT22;8017;50.812;4.934;2023-04-01T02:41:41;9.60;99.90
15834;DHT22;8017;50.812;4.934;2023-04-01T02:44:44;9.60;99.90
15834;DHT22;8017;50.812;4.934;2023-04-01T02:47:46;9.60;99.90
15834;DHT22;8017;50.812;4.934;2023-04-01T02:50:48;9.60;99.90
15834;DHT22;8017;50.812;4.934;2023-04-01T02:53:51;9.60;99.90
15834;DHT22;8017;50.812;4.934;2023-04-01T02:56:53;9.60;99.90
15834;DHT22;8017;50.812;4.934;2023-04-01T02:59:55;9.60;99.90
15834;DHT22;8017;50.812;4.934;2023-04-01T03:02:57;9.60;99.90
15834;DHT22;8017;50.812;4.934;2023-04-01T03:06:05;9.60;99.90
15834;DHT22;8017;50.812;4.934;2023-04-01T03:09:08;9.50;99.90
15834;DHT22;8017;50.812;4.934;2023-04-01T03:12:11;9.50;99.90
15834;DHT22;8017;50.812;4.934;2023-04-01T03:15:13;9.50;99.90
15834;DHT22;8017;50.812;4.934;2023-04-01T03:18:15;9.50;99.90
15834;DHT22;8017;50.812;4.934;2023-04-01T03:21:19;9.50;99.90
15834;DHT22;8017;50.812;4.934;2023-04-01T03:24:23;9.50;99.90
15834;DHT22;8017;50.812;4.934;2023-04-01T03:27:24;9.50;99.90
15834;DHT22;8017;50.812;4.934;2023-04-01T03:30:26;9.50;99.90
15834;DHT22;8017;50.812;4.934;2023-04-01T03:33:30;9.50;99.90
15834;DHT22;8017;50.812;4.934;2023-04-01T03:36:32;9.50;99.90
15834;DHT22;8017;50.812;4.934;2023-04-01T03:39:35;9.50;99.90
15834;DHT22;8017;50.812;4.934;2023-04-01T03:42:37;9.50;99.90
15834;DHT22;8017;50.812;4.934;2023-04-01T03:45:43;9.50;99.90
15834;DHT22;8017;50.812;4.934;2023-04-01T03:48:45;9.40;99.90
15834;DHT22;8017;50.812;4.934;2023-04-01T03:51:48;9.40;99.90
15834;DHT22;8017;50.812;4.934;2023-04-01T03:54:51;9.40;99.90
15834;DHT22;8017;50.812;4.934;2023-04-01T03:57:53;9.40;99.90
15834;DHT22;8017;50.812;4.934;2023-04-01T04:00:55;9.40;99.90
15834;DHT22;8017;50.812;4.934;2023-04-01T04:03:57;9.40;99.90
15834;DHT22;8017;50.812;4.934;2023-04-01T04:06:59;9.40;99.90
15834;DHT22;8017;50.812;4.934;2023-04-01T04:10:03;9.40;99.90
15834;DHT22;8017;50.812;4.934;2023-04-01T04:13:05;9.40;99.90
15834;DHT22;8017;50.812;4.934;2023-04-01T04:16:08;9.40;99.90
15834;DHT22;8017;50.812;4.934;2023-04-01T04:19:10;9.40;99.90
15834;DHT22;8017;50.812;4.934;2023-04-01T04:22:12;9.40;99.90
15834;DHT22;8017;50.812;4.934;2023-04-01T04:25:15;9.40;99.90
15834;DHT22;8017;50.812;4.934;2023-04-01T04:28:17;9.40;99.90
15834;DHT22;8017;50.812;4.934;2023-04-01T04:31:20;9.40;99.90
15834;DHT22;8017;50.812;4.934;2023-04-01T04:34:22;9.40;99.90
15834;DHT22;8017;50.812;4.934;2023-04-01T04:37:25;9.40;99.90
15834;DHT22;8017;50.812;4.934;2023-04-01T04:40:28;9.40;99.90
15834;DHT22;8017;50.812;4.934;2023-04-01T04:43:30;9.40;99.90
15834;DHT22;8017;50.812;4.934;2023-04-01T04:46:32;9.40;99.90
15834;DHT22;8017;50.812;4.934;2023-04-01T04:49:34;9.40;99.90
15834;DHT22;8017;50.812;4.934;2023-04-01T04:52:36;9.40;99.90
15834;DHT22;8017;50.812;4.934;2023-04-01T04:55:43;9.40;99.90
15834;DHT22;8017;50.812;4.934;2023-04-01T04:58:45;9.30;99.90
15834;DHT22;8017;50.812;4.934;2023-04-01T05:01:48;9.30;99.90
15834;DHT22;8017;50.812;4.934;2023-04-01T05:04:50;9.30;99.90
15834;DHT22;8017;50.812;4.934;2023-04-01T05:07:51;9.30;99.90
15834;DHT22;8017;50.812;4.934;2023-04-01T05:10:55;9.30;99.90
15834;DHT22;8017;50.812;4.934;2023-04-01T05:13:57;9.30;99.90
15834;DHT22;8017;50.812;4.934;2023-04-01T05:16:58;9.30;99.90
15834;DHT22;8017;50.812;4.934;2023-04-01T05:20:01;9.30;99.90
15834;DHT22;8017;50.812;4.934;2023-04-01T05:23:03;9.30;99.90
15834;DHT22;8017;50.812;4.934;2023-04-01T05:26:07;9.30;99.90
15834;DHT22;8017;50.812;4.934;2023-04-01T05:29:10;9.30;99.90
15834;DHT22;8017;50.812;4.934;2023-04-01T05:32:12;9.30;99.90
15834;DHT22;8017;50.812;4.934;2023-04-01T05:35:14;9.30;99.90
15834;DHT22;8017;50.812;4.934;2023-04-01T05:38:16;9.30;99.90
15834;DHT22;8017;50.812;4.934;2023-04-01T05:41:19;9.30;99.90
15834;DHT22;8017;50.812;4.934;2023-04-01T05:44:21;9.30;99.90
15834;DHT22;8017;50.812;4.934;2023-04-01T05:47:23;9.40;99.90
15834;DHT22;8017;50.812;4.934;2023-04-01T05:50:25;9.30;99.90
15834;DHT22;8017;50.812;4.934;2023-04-01T05:53:27;9.40;99.90
15834;DHT22;8017;50.812;4.934;2023-04-01T05:56:30;9.40;99.90
15834;DHT22;8017;50.812;4.934;2023-04-01T05:59:32;9.40;99.90
15834;DHT22;8017;50.812;4.934;2023-04-01T06:02:35;9.40;99.90
15834;DHT22;8017;50.812;4.934;2023-04-01T06:05:40;9.40;99.90
15834;DHT22;8017;50.812;4.934;2023-04-01T06:08:42;9.40;99.90
15834;DHT22;8017;50.812;4.934;2023-04-01T06:12:02;9.40;99.90
15834;DHT22;8017;50.812;4.934;2023-04-01T06:15:20;9.40;99.90
15834;DHT22;8017;50.812;4.934;2023-04-01T06:18:52;9.40;99.90
15834;DHT22;8017;50.812;4.934;2023-04-01T06:22:13;9.40;99.90
15834;DHT22;8017;50.812;4.934;2023-04-01T06:25:38;9.50;99.90
15834;DHT22;8017;50.812;4.934;2023-04-01T06:32:40;9.50;99.90
15834;DHT22;8017;50.812;4.934;2023-04-01T06:36:04;9.50;99.90
15834;DHT22;8017;50.812;4.934;2023-04-01T06:39:30;9.60;99.90
15834;DHT22;8017;50.812;4.934;2023-04-01T06:42:54;9.60;99.90
15834;DHT22;8017;50.812;4.934;2023-04-01T06:46:07;9.70;99.90
15834;DHT22;8017;50.812;4.934;2023-04-01T06:49:33;9.70;99.90
15834;DHT22;8017;50.812;4.934;2023-04-01T06:52:46;9.70;99.90
15834;DHT22;8017;50.812;4.934;2023-04-01T06:55:53;9.70;99.90
15834;DHT22;8017;50.812;4.934;2023-04-01T06:59:00;9.80;99.90
15834;DHT22;8017;50.812;4.934;2023-04-01T07:02:16;9.80;99.90
15834;DHT22;8017;50.812;4.934;2023-04-01T07:05:21;9.80;99.90
15834;DHT22;8017;50.812;4.934;2023-04-01T07:08:25;9.70;99.90
15834;DHT22;8017;50.812;4.934;2023-04-01T07:11:33;9.80;99.90
15834;DHT22;8017;50.812;4.934;2023-04-01T07:14:38;9.80;99.90
15834;DHT22;8017;50.812;4.934;2023-04-01T07:17:44;9.80;99.90
15834;DHT22;8017;50.812;4.934;2023-04-01T07:20:48;9.70;99.90
15834;DHT22;8017;50.812;4.934;2023-04-01T07:23:51;9.80;99.90
15834;DHT22;8017;50.812;4.934;2023-04-01T07:26:54;9.80;99.90
15834;DHT22;8017;50.812;4.934;2023-04-01T07:29:57;9.80;99.90
15834;DHT22;8017;50.812;4.934;2023-04-01T07:33:05;9.80;99.90
15834;DHT22;8017;50.812;4.934;2023-04-01T07:36:14;9.90;99.90
15834;DHT22;8017;50.812;4.934;2023-04-01T07:39:30;9.90;99.90
15834;DHT22;8017;50.812;4.934;2023-04-01T07:42:39;9.80;99.90
15834;DHT22;8017;50.812;4.934;2023-04-01T07:45:47;9.80;99.90
15834;DHT22;8017;50.812;4.934;2023-04-01T07:48:57;9.80;99.90
15834;DHT22;8017;50.812;4.934;2023-04-01T07:52:04;9.80;99.90
15834;DHT22;8017;50.812;4.934;2023-04-01T07:55:13;9.80;99.90
15834;DHT22;8017;50.812;4.934;2023-04-01T07:58:22;9.80;99.90
15834;DHT22;8017;50.812;4.934;2023-04-01T08:01:32;9.90;99.90
15834;DHT22;8017;50.812;4.934;2023-04-01T08:04:45;10.00;99.90
15834;DHT22;8017;50.812;4.934;2023-04-01T08:07:54;10.00;99.90
15834;DHT22;8017;50.812;4.934;2023-04-01T08:11:04;10.10;99.90
15834;DHT22;8017;50.812;4.934;2023-04-01T08:14:15;10.30;99.90
15834;DHT22;8017;50.812;4.934;2023-04-01T08:17:24;10.30;99.90
15834;DHT22;8017;50.812;4.934;2023-04-01T08:20:34;10.20;99.90
15834;DHT22;8017;50.812;4.934;2023-04-01T08:23:42;10.10;99.90
15834;DHT22;8017;50.812;4.934;2023-04-01T08:26:50;10.20;99.90
15834;DHT22;8017;50.812;4.934;2023-04-01T08:29:58;10.30;99.90
15834;DHT22;8017;50.812;4.934;2023-04-01T08:33:08;10.30;99.90
15834;DHT22;8017;50.812;4.934;2023-04-01T08:36:15;10.40;99.90
15834;DHT22;8017;50.812;4.934;2023-04-01T08:39:23;10.60;99.90
15834;DHT22;8017;50.812;4.934;2023-04-01T08:42:49;10.60;99.90
15834;DHT22;8017;50.812;4.934;2023-04-01T08:46:11;10.60;99.90
15834;DHT22;8017;50.812;4.934;2023-04-01T08:49:32;10.50;99.90
15834;DHT22;8017;50.812;4.934;2023-04-01T08:52:42;10.50;99.90
15834;DHT22;8017;50.812;4.934;2023-04-01T08:55:56;10.60;99.90
15834;DHT22;8017;50.812;4.934;2023-04-01T08:59:16;10.60;99.90
15834;DHT22;8017;50.812;4.934;2023-04-01T09:06:26;10.50;99.90
15834;DHT22;8017;50.812;4.934;2023-04-01T09:09:55;10.50;99.90
15834;DHT22;8017;50.812;4.934;2023-04-01T09:13:24;10.70;99.90
15834;DHT22;8017;50.812;4.934;2023-04-01T09:16:43;10.70;99.90
15834;DHT22;8017;50.812;4.934;2023-04-01T09:20:14;10.90;99.90
15834;DHT22;8017;50.812;4.934;2023-04-01T09:23:43;11.00;99.90
15834;DHT22;8017;50.812;4.934;2023-04-01T09:27:07;10.90;99.90
15834;DHT22;8017;50.812;4.934;2023-04-01T09:30:32;11.00;99.90
15834;DHT22;8017;50.812;4.934;2023-04-01T09:37:19;11.20;99.90
15834;DHT22;8017;50.812;4.934;2023-04-01T09:40:31;11.30;99.90
15834;DHT22;8017;50.812;4.934;2023-04-01T09:43:54;11.40;99.90
15834;DHT22;8017;50.812;4.934;2023-04-01T09:47:09;11.30;99.90
15834;DHT22;8017;50.812;4.934;2023-04-01T09:50:30;11.20;99.90
15834;DHT22;8017;50.812;4.934;2023-04-01T09:53:48;11.20;99.90
15834;DHT22;8017;50.812;4.934;2023-04-01T09:57:17;11.20;99.90
15834;DHT22;8017;50.812;4.934;2023-04-01T10:00:39;11.60;99.90
15834;DHT22;8017;50.812;4.934;2023-04-01T10:04:12;11.50;99.90
15834;DHT22;8017;50.812;4.934;2023-04-01T10:07:43;11.40;99.90
15834;DHT22;8017;50.812;4.934;2023-04-01T10:14:52;11.60;99.90
15834;DHT22;8017;50.812;4.934;2023-04-01T10:18:27;11.80;99.90
15834;DHT22;8017;50.812;4.934;2023-04-01T10:29:20;12.20;99.90
15834;DHT22;8017;50.812;4.934;2023-04-01T10:36:46;12.10;99.90
15834;DHT22;8017;50.812;4.934;2023-04-01T10:40:20;12.20;99.90
15834;DHT22;8017;50.812;4.934;2023-04-01T10:51:25;12.40;99.90
15834;DHT22;8017;50.812;4.934;2023-04-01T10:54:45;12.70;99.90
15834;DHT22;8017;50.812;4.934;2023-04-01T10:58:10;13.00;99.90
15834;DHT22;8017;50.812;4.934;2023-04-01T11:09:06;13.20;99.90
15834;DHT22;8017;50.812;4.934;2023-04-01T11:20:22;12.90;99.90
15834;DHT22;8017;50.812;4.934;2023-04-01T11:23:38;12.80;99.90
15834;DHT22;8017;50.812;4.934;2023-04-01T11:26:51;13.00;99.90
15834;DHT22;8017;50.812;4.934;2023-04-01T11:30:14;13.10;99.90
15834;DHT22;8017;50.812;4.934;2023-04-01T11:33:22;13.40;99.90
15834;DHT22;8017;50.812;4.934;2023-04-01T11:36:37;13.70;99.90
15834;DHT22;8017;50.812;4.934;2023-04-01T11:39:50;13.30;99.90
15834;DHT22;8017;50.812;4.934;2023-04-01T11:42:59;13.20;99.90
15834;DHT22;8017;50.812;4.934;2023-04-01T11:46:10;13.40;99.90
15834;DHT22;8017;50.812;4.934;2023-04-01T11:49:25;13.10;99.90
15834;DHT22;8017;50.812;4.934;2023-04-01T11:56:10;12.40;99.90
15834;DHT22;8017;50.812;4.934;2023-04-01T12:02:59;12.40;99.90
15834;DHT22;8017;50.812;4.934;2023-04-01T12:06:09;12.50;99.90
15834;DHT22;8017;50.812;4.934;2023-04-01T12:09:20;12.80;99.90
15834;DHT22;8017;50.812;4.934;2023-04-01T12:12:32;12.80;99.90
15834;DHT22;8017;50.812;4.934;2023-04-01T12:15:50;12.80;99.90
15834;DHT22;8017;50.812;4.934;2023-04-01T12:19:01;12.50;99.90
15834;DHT22;8017;50.812;4.934;2023-04-01T12:22:19;12.20;99.90
15834;DHT22;8017;50.812;4.934;2023-04-01T12:25:38;12.10;99.90
15834;DHT22;8017;50.812;4.934;2023-04-01T12:28:57;11.90;99.90
15834;DHT22;8017;50.812;4.934;2023-04-01T12:32:05;12.10;99.90
15834;DHT22;8017;50.812;4.934;2023-04-01T12:35:20;12.50;99.90
15834;DHT22;8017;50.812;4.934;2023-04-01T12:38:31;12.80;99.90
15834;DHT22;8017;50.812;4.934;2023-04-01T12:41:41;12.90;99.90
15834;DHT22;8017;50.812;4.934;2023-04-01T12:44:56;12.90;99.90
15834;DHT22;8017;50.812;4.934;2023-04-01T12:59:09;12.30;99.90
15834;DHT22;8017;50.812;4.934;2023-04-01T13:02:26;12.30;99.90
15834;DHT22;8017;50.812;4.934;2023-04-01T13:06:05;11.90;99.90
15834;DHT22;8017;50.812;4.934;2023-04-01T13:09:21;11.80;99.90
15834;DHT22;8017;50.812;4.934;2023-04-01T13:16:03;11.80;99.90
15834;DHT22;8017;50.812;4.934;2023-04-01T13:19:13;11.70;99.90
15834;DHT22;8017;50.812;4.934;2023-04-01T13:22:22;11.90;99.90
15834;DHT22;8017;50.812;4.934;2023-04-01T13:25:36;12.20;99.90
15834;DHT22;8017;50.812;4.934;2023-04-01T13:28:44;12.10;99.90
15834;DHT22;8017;50.812;4.934;2023-04-01T13:31:57;12.00;99.90
15834;DHT22;8017;50.812;4.934;2023-04-01T13:35:20;11.90;99.90
15834;DHT22;8017;50.812;4.934;2023-04-01T13:38:46;12.20;99.90
15834;DHT22;8017;50.812;4.934;2023-04-01T13:42:05;12.40;99.90
15834;DHT22;8017;50.812;4.934;2023-04-01T13:45:15;12.50;99.90
15834;DHT22;8017;50.812;4.934;2023-04-01T13:52:17;12.40;99.90
15834;DHT22;8017;50.812;4.934;2023-04-01T13:55:44;12.20;99.90
15834;DHT22;8017;50.812;4.934;2023-04-01T13:59:03;12.40;99.90
15834;DHT22;8017;50.812;4.934;2023-04-01T14:06:10;12.10;99.90
15834;DHT22;8017;50.812;4.934;2023-04-01T14:09:37;11.90;99.90
15834;DHT22;8017;50.812;4.934;2023-04-01T14:12:49;11.80;99.90
15834;DHT22;8017;50.812;4.934;2023-04-01T14:16:04;11.80;99.90
15834;DHT22;8017;50.812;4.934;2023-04-01T14:19:23;12.00;99.90
15834;DHT22;8017;50.812;4.934;2023-04-01T14:22:31;11.70;99.90
15834;DHT22;8017;50.812;4.934;2023-04-01T14:25:54;11.60;99.90
15834;DHT22;8017;50.812;4.934;2023-04-01T14:29:04;11.50;99.90
15834;DHT22;8017;50.812;4.934;2023-04-01T14:32:16;11.40;99.90
15834;DHT22;8017;50.812;4.934;2023-04-01T14:35:33;11.50;99.90
15834;DHT22;8017;50.812;4.934;2023-04-01T14:38:54;11.30;99.90
15834;DHT22;8017;50.812;4.934;2023-04-01T14:42:09;11.40;99.90
15834;DHT22;8017;50.812;4.934;2023-04-01T14:48:52;11.80;99.90
15834;DHT22;8017;50.812;4.934;2023-04-01T14:51:55;11.50;99.90
15834;DHT22;8017;50.812;4.934;2023-04-01T14:55:19;11.50;99.90
15834;DHT22;8017;50.812;4.934;2023-04-01T14:58:24;11.60;99.90
15834;DHT22;8017;50.812;4.934;2023-04-01T15:01:37;11.70;99.90
15834;DHT22;8017;50.812;4.934;2023-04-01T15:05:01;11.70;99.90
15834;DHT22;8017;50.812;4.934;2023-04-01T15:08:11;11.70;99.90
15834;DHT22;8017;50.812;4.934;2023-04-01T15:11:33;11.90;99.90
15834;DHT22;8017;50.812;4.934;2023-04-01T15:18:08;12.70;99.90
15834;DHT22;8017;50.812;4.934;2023-04-01T15:21:18;12.70;99.90
15834;DHT22;8017;50.812;4.934;2023-04-01T15:24:25;12.50;99.90
15834;DHT22;8017;50.812;4.934;2023-04-01T15:27:34;12.20;99.90
15834;DHT22;8017;50.812;4.934;2023-04-01T15:30:51;12.00;99.90
15834;DHT22;8017;50.812;4.934;2023-04-01T15:34:15;12.20;99.90
15834;DHT22;8017;50.812;4.934;2023-04-01T15:37:31;12.10;99.90
15834;DHT22;8017;50.812;4.934;2023-04-01T15:40:41;11.90;99.90
15834;DHT22;8017;50.812;4.934;2023-04-01T15:43:45;12.00;99.90
15834;DHT22;8017;50.812;4.934;2023-04-01T15:46:50;12.00;99.90
15834;DHT22;8017;50.812;4.934;2023-04-01T15:49:57;11.80;99.90
15834;DHT22;8017;50.812;4.934;2023-04-01T15:53:13;11.70;99.90
15834;DHT22;8017;50.812;4.934;2023-04-01T15:56:30;11.50;99.90
15834;DHT22;8017;50.812;4.934;2023-04-01T16:00:11;11.40;99.90
15834;DHT22;8017;50.812;4.934;2023-04-01T16:03:23;11.30;99.90
15834;DHT22;8017;50.812;4.934;2023-04-01T16:06:45;11.30;99.90
15834;DHT22;8017;50.812;4.934;2023-04-01T16:13:40;11.30;99.90
15834;DHT22;8017;50.812;4.934;2023-04-01T16:16:59;11.40;99.90
15834;DHT22;8017;50.812;4.934;2023-04-01T16:20:13;11.40;99.90
15834;DHT22;8017;50.812;4.934;2023-04-01T16:23:22;11.30;99.90
15834;DHT22;8017;50.812;4.934;2023-04-01T16:26:31;11.20;99.90
15834;DHT22;8017;50.812;4.934;2023-04-01T16:29:43;11.20;99.90
15834;DHT22;8017;50.812;4.934;2023-04-01T16:32:51;11.10;99.90
15834;DHT22;8017;50.812;4.934;2023-04-01T16:35:58;11.00;99.90
15834;DHT22;8017;50.812;4.934;2023-04-01T16:39:25;11.00;99.90
15834;DHT22;8017;50.812;4.934;2023-04-01T16:42:38;11.00;99.90
15834;DHT22;8017;50.812;4.934;2023-04-01T16:45:45;11.00;99.90
15834;DHT22;8017;50.812;4.934;2023-04-01T16:48:59;11.00;99.90
15834;DHT22;8017;50.812;4.934;2023-04-01T16:52:14;10.90;99.90
15834;DHT22;8017;50.812;4.934;2023-04-01T16:55:17;10.90;99.90
15834;DHT22;8017;50.812;4.934;2023-04-01T16:58:26;10.80;99.90
15834;DHT22;8017;50.812;4.934;2023-04-01T17:01:32;10.80;99.90
15834;DHT22;8017;50.812;4.934;2023-04-01T17:04:41;10.60;99.90
15834;DHT22;8017;50.812;4.934;2023-04-01T17:07:49;10.40;99.90
15834;DHT22;8017;50.812;4.934;2023-04-01T17:11:02;10.50;99.90
15834;DHT22;8017;50.812;4.934;2023-04-01T17:14:17;10.30;99.90
15834;DHT22;8017;50.812;4.934;2023-04-01T17:17:31;10.30;99.90
15834;DHT22;8017;50.812;4.934;2023-04-01T17:20:42;10.10;99.90
15834;DHT22;8017;50.812;4.934;2023-04-01T17:23:50;9.90;99.90
15834;DHT22;8017;50.812;4.934;2023-04-01T17:27:00;9.90;99.90
15834;DHT22;8017;50.812;4.934;2023-04-01T17:30:24;9.80;99.90
15834;DHT22;8017;50.812;4.934;2023-04-01T17:33:42;9.80;99.90
15834;DHT22;8017;50.812;4.934;2023-04-01T17:36:58;9.80;99.90
15834;DHT22;8017;50.812;4.934;2023-04-01T17:43:42;9.70;99.90
15834;DHT22;8017;50.812;4.934;2023-04-01T17:47:03;9.60;99.90
15834;DHT22;8017;50.812;4.934;2023-04-01T17:50:20;9.60;99.90
15834;DHT22;8017;50.812;4.934;2023-04-01T17:53:29;9.60;99.90
15834;DHT22;8017;50.812;4.934;2023-04-01T17:56:42;9.40;99.90
15834;DHT22;8017;50.812;4.934;2023-04-01T17:59:52;9.50;99.90
15834;DHT22;8017;50.812;4.934;2023-04-01T18:03:06;9.40;99.90
15834;DHT22;8017;50.812;4.934;2023-04-01T18:06:17;9.50;99.90
15834;DHT22;8017;50.812;4.934;2023-04-01T18:09:28;9.40;99.90
15834;DHT22;8017;50.812;4.934;2023-04-01T18:12:38;9.40;99.90
15834;DHT22;8017;50.812;4.934;2023-04-01T18:15:52;9.40;99.90
15834;DHT22;8017;50.812;4.934;2023-04-01T18:19:03;9.40;99.90
15834;DHT22;8017;50.812;4.934;2023-04-01T18:22:19;9.30;99.90
15834;DHT22;8017;50.812;4.934;2023-04-01T18:25:27;9.40;99.90
15834;DHT22;8017;50.812;4.934;2023-04-01T18:28:36;9.40;99.90
15834;DHT22;8017;50.812;4.934;2023-04-01T18:31:43;9.30;99.90
15834;DHT22;8017;50.812;4.934;2023-04-01T18:34:55;9.30;99.90
15834;DHT22;8017;50.812;4.934;2023-04-01T18:38:04;9.40;99.90
15834;DHT22;8017;50.812;4.934;2023-04-01T18:41:14;9.40;99.90
15834;DHT22;8017;50.812;4.934;2023-04-01T18:44:28;9.30;99.90
15834;DHT22;8017;50.812;4.934;2023-04-01T18:47:38;9.40;99.90
15834;DHT22;8017;50.812;4.934;2023-04-01T18:50:51;9.50;99.90
15834;DHT22;8017;50.812;4.934;2023-04-01T18:53:57;9.30;99.90
15834;DHT22;8017;50.812;4.934;2023-04-01T18:57:02;9.30;99.90
15834;DHT22;8017;50.812;4.934;2023-04-01T19:00:13;9.40;99.90
15834;DHT22;8017;50.812;4.934;2023-04-01T19:03:20;9.40;99.90
15834;DHT22;8017;50.812;4.934;2023-04-01T19:06:29;9.30;99.90
15834;DHT22;8017;50.812;4.934;2023-04-01T19:09:43;9.30;99.90
15834;DHT22;8017;50.812;4.934;2023-04-01T19:12:55;9.30;99.90
15834;DHT22;8017;50.812;4.934;2023-04-01T19:16:06;9.20;99.90
15834;DHT22;8017;50.812;4.934;2023-04-01T19:19:38;9.20;99.90
15834;DHT22;8017;50.812;4.934;2023-04-01T19:22:58;9.20;99.90
15834;DHT22;8017;50.812;4.934;2023-04-01T19:26:11;9.20;99.90
15834;DHT22;8017;50.812;4.934;2023-04-01T19:29:25;9.10;99.90
15834;DHT22;8017;50.812;4.934;2023-04-01T19:32:37;9.10;99.90
15834;DHT22;8017;50.812;4.934;2023-04-01T19:35:44;9.10;99.90
15834;DHT22;8017;50.812;4.934;2023-04-01T19:38:58;9.10;99.90
15834;DHT22;8017;50.812;4.934;2023-04-01T19:42:09;9.10;99.90
15834;DHT22;8017;50.812;4.934;2023-04-01T19:45:21;9.10;99.90
15834;DHT22;8017;50.812;4.934;2023-04-01T19:48:37;9.20;99.90
15834;DHT22;8017;50.812;4.934;2023-04-01T19:51:49;9.10;99.90
15834;DHT22;8017;50.812;4.934;2023-04-01T19:54:58;9.00;99.90
15834;DHT22;8017;50.812;4.934;2023-04-01T19:58:05;8.90;99.90
15834;DHT22;8017;50.812;4.934;2023-04-01T20:01:14;8.90;99.90
15834;DHT22;8017;50.812;4.934;2023-04-01T20:04:24;9.00;99.90
15834;DHT22;8017;50.812;4.934;2023-04-01T20:07:33;9.00;99.90
15834;DHT22;8017;50.812;4.934;2023-04-01T20:10:44;9.00;99.90
15834;DHT22;8017;50.812;4.934;2023-04-01T20:13:58;9.00;99.90
15834;DHT22;8017;50.812;4.934;2023-04-01T20:17:15;9.00;99.90
15834;DHT22;8017;50.812;4.934;2023-04-01T20:20:20;8.90;99.90
15834;DHT22;8017;50.812;4.934;2023-04-01T20:23:40;8.90;99.90
15834;DHT22;8017;50.812;4.934;2023-04-01T20:26:50;8.90;99.90
15834;DHT22;8017;50.812;4.934;2023-04-01T20:30:23;8.90;99.90
15834;DHT22;8017;50.812;4.934;2023-04-01T20:33:57;8.80;99.90
15834;DHT22;8017;50.812;4.934;2023-04-01T20:37:20;8.90;99.90
15834;DHT22;8017;50.812;4.934;2023-04-01T20:40:33;8.90;99.90
15834;DHT22;8017;50.812;4.934;2023-04-01T20:43:52;8.80;99.90
15834;DHT22;8017;50.812;4.934;2023-04-01T20:47:06;8.80;99.90
15834;DHT22;8017;50.812;4.934;2023-04-01T20:50:19;8.90;99.90
15834;DHT22;8017;50.812;4.934;2023-04-01T20:53:29;8.90;99.90
15834;DHT22;8017;50.812;4.934;2023-04-01T20:56:47;8.90;99.90
15834;DHT22;8017;50.812;4.934;2023-04-01T21:00:24;8.90;99.90
15834;DHT22;8017;50.812;4.934;2023-04-01T21:03:38;8.80;99.90
15834;DHT22;8017;50.812;4.934;2023-04-01T21:06:57;8.90;99.90
15834;DHT22;8017;50.812;4.934;2023-04-01T21:10:20;8.90;99.90
15834;DHT22;8017;50.812;4.934;2023-04-01T21:13:36;8.90;99.90
15834;DHT22;8017;50.812;4.934;2023-04-01T21:16:49;9.00;99.90
15834;DHT22;8017;50.812;4.934;2023-04-01T21:20:06;9.00;99.90
15834;DHT22;8017;50.812;4.934;2023-04-01T21:23:29;9.00;99.90
15834;DHT22;8017;50.812;4.934;2023-04-01T21:26:42;9.10;99.90
15834;DHT22;8017;50.812;4.934;2023-04-01T21:29:53;9.10;99.90
15834;DHT22;8017;50.812;4.934;2023-04-01T21:33:16;9.10;99.90
15834;DHT22;8017;50.812;4.934;2023-04-01T21:36:38;9.10;99.90
15834;DHT22;8017;50.812;4.934;2023-04-01T21:39:51;9.20;99.90
15834;DHT22;8017;50.812;4.934;2023-04-01T21:43:03;9.20;99.90
15834;DHT22;8017;50.812;4.934;2023-04-01T21:50:05;9.40;99.90
15834;DHT22;8017;50.812;4.934;2023-04-01T22:00:49;9.40;99.90
15834;DHT22;8017;50.812;4.934;2023-04-01T22:04:31;9.40;99.90
15834;DHT22;8017;50.812;4.934;2023-04-01T22:07:41;9.40;99.90
15834;DHT22;8017;50.812;4.934;2023-04-01T22:10:53;9.30;99.90
15834;DHT22;8017;50.812;4.934;2023-04-01T22:14:03;9.30;99.90
15834;DHT22;8017;50.812;4.934;2023-04-01T22:17:13;9.20;99.90
15834;DHT22;8017;50.812;4.934;2023-04-01T22:20:25;9.20;99.90
15834;DHT22;8017;50.812;4.934;2023-04-01T22:23:32;9.20;99.90
15834;DHT22;8017;50.812;4.934;2023-04-01T22:26:42;9.30;99.90
15834;DHT22;8017;50.812;4.934;2023-04-01T22:29:56;9.20;99.90
15834;DHT22;8017;50.812;4.934;2023-04-01T22:33:05;9.20;99.90